createdAt,value
2023-05-09T00:02:16.163Z,31.90
2023-05-09T00:05:24.372Z,31.90
2023-05-09T00:08:33.555Z,31.90
2023-05-09T00:11:41.630Z,31.90
2023-05-09T00:14:51.555Z,32.00
2023-05-09T00:17:59.474Z,32.00
2023-05-09T00:21:07.432Z,32.00
2023-05-09T00:24:16.973Z,32.00
2023-05-09T00:27:24.806Z,32.00
2023-05-09T00:30:32.876Z,32.10
2023-05-09T00:33:41.145Z,32.10
2023-05-09T00:36:49.863Z,32.10
2023-05-09T00:39:59.385Z,32.20
2023-05-09T00:43:07.462Z,32.10
2023-05-09T00:46:15.276Z,32.20
2023-05-09T00:49:23.259Z,32.20
2023-05-09T00:52:31.112Z,32.30
2023-05-09T00:55:40.775Z,32.30
2023-05-09T00:58:48.551Z,32.30
2023-05-09T01:01:57.057Z,32.30
2023-05-09T01:05:05.789Z,32.30
2023-05-09T01:08:17.905Z,32.30
2023-05-09T01:11:30.428Z,32.40
2023-05-09T01:14:41.686Z,32.40
2023-05-09T01:17:56.679Z,32.40
2023-05-09T01:21:07.677Z,32.50
2023-05-09T01:24:32.743Z,32.50
2023-05-09T01:27:47.335Z,32.50
2023-05-09T01:30:56.607Z,32.50
2023-05-09T01:34:04.494Z,32.50
2023-05-09T01:37:13.471Z,32.50
2023-05-09T01:40:21.818Z,32.50
2023-05-09T01:43:30.309Z,32.50
2023-05-09T01:46:40.093Z,32.50
2023-05-09T01:49:48.570Z,32.50
2023-05-09T01:52:57.545Z,32.50
2023-05-09T01:56:05.851Z,32.50
2023-05-09T01:59:16.018Z,32.50
2023-05-09T02:02:26.219Z,33.20
2023-05-09T02:05:34.447Z,32.50
2023-05-09T02:08:42.930Z,32.50
2023-05-09T02:11:50.988Z,33.20
2023-05-09T02:14:59.222Z,32.60
2023-05-09T02:18:08.764Z,32.60
2023-05-09T02:21:16.883Z,32.60
2023-05-09T02:24:25.759Z,32.60
2023-05-09T02:27:33.860Z,32.70
2023-05-09T02:30:43.933Z,32.60
2023-05-09T02:33:53.731Z,32.60
2023-05-09T02:37:01.483Z,32.70
2023-05-09T02:40:10.511Z,32.70
2023-05-09T02:43:18.556Z,32.70
2023-05-09T02:46:27.103Z,32.70
2023-05-09T02:49:36.524Z,32.80
2023-05-09T02:52:45.930Z,32.80
2023-05-09T02:55:54.305Z,32.80
2023-05-09T02:59:02.556Z,32.80
2023-05-09T03:02:10.411Z,32.80
2023-05-09T03:05:19.886Z,32.80
2023-05-09T03:08:27.763Z,32.80
2023-05-09T03:11:36.811Z,32.80
2023-05-09T03:14:44.826Z,32.80
2023-05-09T03:17:52.950Z,32.80
2023-05-09T03:21:03.942Z,32.80
2023-05-09T03:24:12.772Z,32.80
2023-05-09T03:27:21.039Z,32.90
2023-05-09T03:30:30.984Z,32.90
2023-05-09T03:33:39.769Z,32.90
2023-05-09T03:36:50.583Z,32.90
2023-05-09T03:39:58.643Z,33.00
2023-05-09T03:43:07.658Z,33.00
2023-05-09T03:46:15.576Z,33.00
2023-05-09T03:49:26.482Z,33.00
2023-05-09T03:52:37.434Z,33.00
2023-05-09T03:55:46.437Z,33.00
2023-05-09T03:58:56.177Z,33.00
2023-05-09T04:02:05.907Z,33.10
2023-05-09T04:05:14.125Z,33.10
2023-05-09T04:08:23.824Z,33.10
2023-05-09T04:11:32.087Z,33.10
2023-05-09T04:14:41.639Z,33.10
2023-05-09T04:17:50.240Z,33.10
2023-05-09T04:20:58.155Z,33.10
2023-05-09T04:24:08.621Z,33.10
2023-05-09T04:27:23.659Z,33.10
2023-05-09T04:30:31.672Z,33.10
2023-05-09T04:33:40.148Z,33.10
2023-05-09T04:36:47.929Z,33.10
2023-05-09T04:39:57.513Z,33.10
2023-05-09T04:43:12.122Z,33.20
2023-05-09T04:46:20.078Z,33.80
2023-05-09T04:49:28.407Z,33.30
2023-05-09T04:52:37.835Z,33.20
2023-05-09T04:55:47.146Z,33.20
2023-05-09T04:58:55.325Z,33.30
2023-05-09T05:02:03.585Z,33.30
2023-05-09T05:05:12.703Z,33.40
2023-05-09T05:08:24.115Z,33.40
2023-05-09T05:11:33.905Z,33.40
2023-05-09T05:14:43.971Z,33.40
2023-05-09T05:17:56.564Z,33.40
2023-05-09T05:21:10.138Z,33.50
2023-05-09T05:24:19.099Z,33.60
2023-05-09T05:27:29.475Z,33.70
2023-05-09T05:30:38.042Z,33.80
2023-05-09T05:33:46.199Z,34.00
2023-05-09T05:36:54.643Z,33.80
2023-05-09T05:40:03.534Z,33.80
2023-05-09T05:43:13.403Z,33.80
2023-05-09T05:46:22.220Z,33.70
2023-05-09T05:49:30.512Z,33.70
2023-05-09T05:52:39.480Z,33.70
2023-05-09T05:55:49.206Z,33.60
2023-05-09T05:58:59.208Z,33.60
2023-05-09T06:02:07.361Z,33.50
2023-05-09T06:05:16.993Z,33.60
2023-05-09T06:08:25.079Z,33.60
2023-05-09T06:11:33.046Z,33.60
2023-05-09T06:14:42.819Z,33.60
2023-05-09T06:17:51.455Z,33.50
2023-05-09T06:20:59.378Z,33.50
2023-05-09T06:24:12.182Z,33.40
2023-05-09T06:27:29.438Z,33.40
2023-05-09T06:30:39.034Z,33.30
2023-05-09T06:33:47.187Z,33.90
2023-05-09T06:36:55.344Z,33.20
2023-05-09T06:40:03.373Z,33.20
2023-05-09T06:43:11.397Z,33.10
2023-05-09T06:46:20.967Z,33.00
2023-05-09T06:49:28.909Z,33.00
2023-05-09T06:52:37.047Z,33.00
2023-05-09T06:55:45.025Z,33.00
2023-05-09T06:58:52.957Z,32.90
2023-05-09T07:02:02.461Z,32.90
2023-05-09T07:05:10.880Z,32.90
2023-05-09T07:08:18.764Z,32.80
2023-05-09T07:11:26.919Z,32.70
2023-05-09T07:14:34.807Z,32.70
2023-05-09T07:17:44.222Z,32.70
2023-05-09T07:20:52.163Z,32.60
2023-05-09T07:24:00.267Z,32.70
2023-05-09T07:27:08.381Z,32.60
2023-05-09T07:30:18.065Z,33.20
2023-05-09T07:33:27.658Z,32.60
2023-05-09T07:39:47.406Z,32.50
2023-05-09T07:42:56.727Z,33.10
2023-05-09T07:46:04.686Z,32.40
2023-05-09T07:49:13.884Z,32.40
2023-05-09T07:52:21.912Z,32.40
2023-05-09T07:55:29.728Z,32.40
2023-05-09T07:58:37.746Z,32.40
2023-05-09T08:01:46.116Z,32.40
2023-05-09T08:04:55.750Z,32.30
2023-05-09T08:08:03.854Z,32.30
2023-05-09T08:11:11.862Z,32.30
2023-05-09T08:14:20.047Z,32.30
2023-05-09T08:17:28.133Z,32.20
2023-05-09T08:20:37.422Z,32.20
2023-05-09T08:23:45.361Z,32.20
2023-05-09T08:26:53.424Z,32.20
2023-05-09T08:30:01.501Z,32.20
2023-05-09T08:33:09.472Z,32.20
2023-05-09T08:36:18.846Z,32.20
2023-05-09T08:39:26.962Z,32.20
2023-05-09T08:42:34.781Z,32.20
2023-05-09T08:45:46.887Z,32.10
2023-05-09T08:48:54.950Z,32.10
2023-05-09T08:52:04.380Z,32.10
2023-05-09T08:55:12.659Z,32.10
2023-05-09T08:58:22.804Z,32.10
2023-05-09T09:01:31.010Z,32.10
2023-05-09T09:04:39.457Z,32.10
2023-05-09T09:07:48.724Z,32.10
2023-05-09T09:10:56.302Z,32.10
2023-05-09T09:14:07.740Z,32.00
2023-05-09T09:17:17.201Z,32.00
2023-05-09T09:20:26.700Z,32.00
2023-05-09T09:23:36.230Z,32.10
2023-05-09T09:26:47.416Z,32.00
2023-05-09T09:29:55.311Z,32.00
2023-05-09T09:33:03.624Z,32.00
2023-05-09T09:36:11.591Z,32.00
2023-05-09T09:39:21.902Z,32.00
2023-05-09T09:42:40.125Z,32.00
2023-05-09T09:45:50.073Z,31.90
2023-05-09T09:48:58.034Z,32.00
2023-05-09T09:52:05.939Z,32.00
2023-05-09T09:55:15.217Z,32.00
2023-05-09T09:58:25.126Z,31.90
2023-05-09T10:01:33.384Z,31.90
2023-05-09T10:04:43.230Z,31.90
2023-05-09T10:07:53.916Z,31.90
2023-05-09T10:11:03.117Z,31.90
2023-05-09T10:14:11.560Z,31.90
2023-05-09T10:17:19.490Z,31.90
2023-05-09T10:20:27.174Z,31.80
2023-05-09T10:23:38.013Z,31.90
2023-05-09T10:26:47.198Z,31.90
2023-05-09T10:29:58.543Z,31.80
2023-05-09T10:33:10.444Z,31.80
2023-05-09T10:36:20.593Z,32.40
2023-05-09T10:39:28.909Z,31.80
2023-05-09T10:42:38.042Z,31.80
2023-05-09T10:45:46.069Z,31.80
2023-05-09T10:48:54.177Z,31.80
2023-05-09T10:52:02.134Z,31.80
2023-05-09T10:55:11.343Z,31.80
2023-05-09T10:58:26.211Z,31.70
2023-05-09T11:01:36.822Z,31.70
2023-05-09T11:04:45.216Z,31.70
2023-05-09T11:08:21.253Z,31.70
2023-05-09T11:11:30.777Z,31.70
2023-05-09T11:14:44.342Z,31.70
2023-05-09T11:17:52.689Z,31.60
2023-05-09T11:21:00.660Z,31.60
2023-05-09T11:24:17.797Z,31.60
2023-05-09T11:27:28.296Z,31.60
2023-05-09T11:30:42.122Z,31.60
2023-05-09T11:33:55.056Z,31.60
2023-05-09T11:37:10.632Z,31.60
2023-05-09T11:40:19.231Z,31.60
2023-05-09T11:43:27.195Z,31.60
2023-05-09T11:46:36.908Z,31.60
2023-05-09T11:49:44.966Z,31.60
2023-05-09T11:52:53.074Z,31.60
2023-05-09T11:56:04.056Z,31.50
2023-05-09T11:59:14.579Z,31.50
2023-05-09T12:02:24.396Z,31.50
2023-05-09T12:05:32.764Z,31.50
2023-05-09T12:08:40.898Z,31.50
2023-05-09T12:11:50.313Z,31.50
2023-05-09T12:14:58.364Z,32.10
2023-05-09T12:18:08.548Z,31.50
2023-05-09T12:21:16.833Z,31.50
2023-05-09T12:24:26.621Z,32.10
2023-05-09T12:27:34.709Z,31.50
2023-05-09T12:30:42.504Z,31.50
2023-05-09T12:33:52.139Z,31.50
2023-05-09T12:37:03.556Z,31.50
2023-05-09T12:40:15.183Z,31.40
2023-05-09T12:43:23.592Z,31.40
2023-05-09T12:46:31.525Z,31.40
2023-05-09T12:49:41.109Z,31.40
2023-05-09T12:53:01.947Z,31.40
2023-05-09T12:56:15.657Z,31.30
2023-05-09T12:59:23.841Z,31.90
2023-05-09T13:02:35.372Z,31.20
2023-05-09T13:05:44.762Z,31.20
2023-05-09T13:09:01.164Z,31.10
2023-05-09T13:12:10.030Z,31.00
2023-05-09T13:15:19.914Z,31.00
2023-05-09T13:18:27.851Z,30.90
2023-05-09T13:21:37.539Z,30.90
2023-05-09T13:24:45.708Z,30.80
2023-05-09T13:27:53.830Z,30.90
2023-05-09T13:31:02.947Z,30.80
2023-05-09T13:34:10.889Z,30.80
2023-05-09T13:37:20.023Z,30.80
2023-05-09T13:40:28.175Z,30.80
2023-05-09T13:43:36.403Z,30.80
2023-05-09T13:46:44.106Z,30.80
2023-05-09T13:49:52.141Z,30.80
2023-05-09T13:53:01.273Z,30.80
2023-05-09T13:56:10.032Z,30.70
2023-05-09T13:59:17.864Z,30.60
2023-05-09T14:02:25.793Z,30.60
2023-05-09T14:05:34.001Z,30.70
2023-05-09T14:08:43.632Z,30.70
2023-05-09T14:11:51.910Z,30.70
2023-05-09T14:15:00.062Z,30.50
2023-05-09T14:18:08.340Z,30.60
2023-05-09T14:21:16.668Z,30.70
2023-05-09T14:24:25.859Z,30.70
2023-05-09T14:27:36.772Z,30.70
2023-05-09T14:30:44.564Z,30.70
2023-05-09T14:33:52.391Z,31.20
2023-05-09T14:37:00.427Z,30.60
2023-05-09T14:40:10.948Z,30.60
2023-05-09T14:43:18.963Z,30.70
2023-05-09T14:46:27.258Z,30.70
2023-05-09T14:49:35.344Z,30.70
2023-05-09T14:52:44.096Z,30.70
2023-05-09T14:55:53.506Z,30.60
2023-05-09T14:59:01.264Z,31.50
2023-05-09T15:01:50.865Z,31.10
2023-05-09T15:04:40.891Z,31.00
2023-05-09T15:07:29.034Z,30.80
2023-05-09T15:10:17.176Z,30.70
2023-05-09T15:13:06.311Z,30.80
2023-05-09T15:15:54.270Z,30.70
2023-05-09T15:18:45.323Z,30.90
2023-05-09T15:21:33.620Z,30.80
2023-05-09T15:24:21.468Z,30.80
2023-05-09T15:27:10.053Z,30.80
2023-05-09T15:29:59.159Z,30.90
2023-05-09T15:32:46.881Z,30.90
2023-05-09T15:35:34.815Z,31.00
2023-05-09T15:38:22.686Z,31.10
2023-05-09T15:41:10.584Z,31.30
2023-05-09T15:43:58.516Z,31.40
2023-05-09T15:46:48.237Z,31.40
2023-05-09T15:49:35.908Z,31.50
2023-05-09T15:52:23.353Z,31.40
2023-05-09T15:55:12.947Z,31.40
2023-05-09T15:58:00.644Z,31.40
2023-05-09T16:00:48.452Z,31.30
2023-05-09T16:03:37.904Z,31.40
2023-05-09T16:06:25.885Z,31.30
2023-05-09T16:09:15.294Z,31.20
2023-05-09T16:12:03.336Z,31.30
2023-05-09T16:15:10.649Z,31.50
2023-05-09T16:18:18.772Z,31.50
2023-05-09T16:21:29.189Z,31.50
2023-05-09T16:24:37.483Z,31.50
2023-05-09T16:27:45.711Z,31.60
2023-05-09T16:30:53.817Z,31.90
2023-05-09T16:34:03.534Z,31.70
2023-05-09T16:37:20.115Z,31.50
2023-05-09T16:40:29.931Z,30.30
2023-05-09T16:43:40.193Z,30.40
2023-05-09T16:46:50.421Z,30.40
2023-05-09T16:50:03.814Z,30.50
2023-05-09T16:53:13.701Z,30.40
2023-05-09T16:56:22.526Z,30.40
2023-05-09T16:59:30.758Z,30.30
2023-05-09T17:02:38.686Z,30.30
2023-05-09T17:05:46.948Z,30.20
2023-05-09T17:08:56.575Z,30.20
2023-05-09T17:12:05.104Z,30.10
2023-05-09T17:15:13.837Z,30.10
2023-05-09T17:18:33.163Z,30.00
2023-05-09T17:21:44.328Z,30.00
2023-05-09T17:24:53.642Z,30.00
2023-05-09T17:28:01.595Z,30.00
2023-05-09T17:31:09.719Z,30.00
2023-05-09T17:34:18.002Z,30.00
2023-05-09T17:37:26.125Z,29.90
2023-05-09T17:40:35.388Z,29.90
2023-05-09T17:43:43.441Z,29.90
2023-05-09T17:46:51.351Z,29.90
2023-05-09T17:49:59.528Z,29.90
2023-05-09T17:53:08.708Z,29.90
2023-05-09T17:56:18.004Z,29.90
2023-05-09T17:59:26.128Z,29.80
2023-05-09T18:02:34.086Z,29.80
2023-05-09T18:05:42.111Z,29.80
2023-05-09T18:08:50.411Z,29.80
2023-05-09T18:12:00.162Z,29.80
2023-05-09T18:15:10.078Z,29.80
2023-05-09T18:18:17.898Z,29.80
2023-05-09T18:21:25.797Z,29.80
2023-05-09T18:24:33.916Z,29.80
2023-05-09T18:27:43.106Z,29.80
2023-05-09T18:30:51.551Z,29.80
2023-05-09T18:33:59.445Z,30.30
2023-05-09T18:37:07.569Z,29.90
2023-05-09T18:40:16.123Z,29.90
2023-05-09T18:43:26.222Z,29.90
2023-05-09T18:46:34.483Z,29.90
2023-05-09T18:49:42.620Z,29.90
2023-05-09T18:52:50.824Z,29.90
2023-05-09T18:55:58.985Z,30.00
2023-05-09T18:59:09.589Z,30.10
2023-05-09T19:02:17.448Z,30.20
2023-05-09T19:05:27.422Z,31.00
2023-05-09T19:08:35.464Z,30.50
2023-05-09T19:11:43.423Z,30.50
2023-05-09T19:14:52.504Z,30.60
2023-05-09T19:18:00.585Z,30.70
2023-05-09T19:21:08.324Z,30.80
2023-05-09T19:24:16.512Z,30.90
2023-05-09T19:27:24.784Z,31.60
2023-05-09T19:30:34.413Z,31.00
2023-05-09T19:33:22.016Z,31.10
2023-05-09T19:36:09.614Z,31.20
2023-05-09T19:38:57.094Z,31.40
2023-05-09T19:41:44.633Z,31.40
2023-05-09T19:44:32.531Z,31.60
2023-05-09T19:47:21.571Z,31.60
2023-05-09T19:50:11.227Z,31.70
2023-05-09T19:52:58.955Z,31.60
2023-05-09T19:55:47.819Z,31.70
2023-05-09T19:58:35.802Z,31.70
2023-05-09T20:01:23.685Z,31.80
2023-05-09T20:04:13.165Z,31.70
2023-05-09T20:07:00.878Z,31.70
2023-05-09T20:09:48.893Z,31.70
2023-05-09T20:12:36.249Z,31.70
2023-05-09T20:15:24.313Z,31.70
2023-05-09T20:18:12.083Z,31.70
2023-05-09T20:21:01.128Z,31.70
2023-05-09T20:23:48.874Z,31.60
2023-05-09T20:26:36.397Z,31.70
2023-05-09T20:29:24.881Z,31.60
2023-05-09T20:32:31.934Z,31.60
2023-05-09T20:35:42.694Z,31.60
2023-05-09T20:38:51.992Z,31.60
2023-05-09T20:42:02.381Z,31.60
2023-05-09T20:45:11.403Z,31.60
2023-05-09T20:48:22.439Z,31.60
2023-05-09T20:51:31.476Z,31.60
2023-05-09T20:54:41.172Z,31.60
2023-05-09T20:57:49.196Z,32.20
2023-05-09T21:00:57.414Z,31.60
2023-05-09T21:04:05.891Z,31.60
2023-05-09T21:07:13.860Z,31.60
2023-05-09T21:10:23.437Z,31.60
2023-05-09T21:13:31.603Z,31.60
2023-05-09T21:16:39.496Z,31.60
2023-05-09T21:19:51.403Z,31.60
2023-05-09T21:22:59.415Z,31.70
2023-05-09T21:26:08.828Z,31.70
2023-05-09T21:29:17.040Z,31.70
2023-05-09T21:32:25.268Z,31.80
2023-05-09T21:35:33.468Z,31.80
2023-05-09T21:38:41.337Z,31.80
2023-05-09T21:41:50.732Z,31.80
2023-05-09T21:44:58.797Z,31.90
2023-05-09T21:48:07.386Z,31.90
2023-05-09T21:51:15.258Z,31.90
2023-05-09T21:54:23.432Z,31.90
2023-05-09T21:57:32.606Z,31.90
2023-05-09T22:00:40.339Z,31.90
2023-05-09T22:03:48.573Z,31.90
2023-05-09T22:06:56.392Z,31.90
2023-05-09T22:10:04.710Z,31.90
2023-05-09T22:13:14.093Z,31.90
2023-05-09T22:16:22.367Z,31.90
2023-05-09T22:19:30.318Z,31.90
2023-05-09T22:22:38.208Z,31.90
2023-05-09T22:25:46.444Z,32.00
2023-05-09T22:28:56.002Z,32.00
2023-05-09T22:32:04.271Z,32.00
2023-05-09T22:35:12.814Z,32.00
2023-05-09T22:38:20.921Z,32.00
2023-05-09T22:41:29.044Z,32.00
2023-05-09T22:44:38.925Z,32.00
2023-05-09T22:47:47.012Z,32.10
2023-05-09T22:50:55.049Z,32.10
2023-05-09T22:54:03.065Z,32.10
2023-05-09T22:57:11.020Z,32.10
2023-05-09T23:00:20.528Z,32.10
2023-05-09T23:03:28.427Z,32.10
2023-05-09T23:06:36.306Z,32.10
2023-05-09T23:09:44.429Z,32.10
2023-05-09T23:12:52.311Z,32.10
2023-05-09T23:16:01.737Z,32.10
2023-05-09T23:19:09.676Z,32.20
2023-05-09T23:22:17.873Z,32.20
2023-05-09T23:25:26.135Z,32.20
2023-05-09T23:28:33.926Z,32.20
2023-05-09T23:31:43.728Z,32.20
2023-05-09T23:34:52.062Z,32.20
2023-05-09T23:38:00.395Z,32.80
2023-05-09T23:41:08.740Z,32.20
2023-05-09T23:44:17.035Z,32.20
2023-05-09T23:47:26.381Z,32.20
2023-05-09T23:50:34.547Z,32.20
2023-05-09T23:53:42.360Z,32.20
2023-05-09T23:56:50.545Z,32.20
2023-05-09T23:59:58.557Z,32.50
